Palencia, Spain
Current Conditions -  °F | °C
As of 4:00 PM on Monday 24 Nov 2014 (Local Time) from LEVD Reporting Station
Few Clouds Few Clouds  
Wind Chill: 59°   Ceiling: Unl
Heat Index: 59°   Visibility: 6mi
Dew Point: 52°   Wind: 6mph
Humidity: 77%   Direction: 80°E
Pressure: 30.03"   Gusts: NA
Location:  42.01°N, 4.53°W
Report Text: LEVD 241500Z 08005KT 060V120 9999 FEW018 15/11 Q1017
Loading
Personal Weather Stations






























Interactive Weather Map New forecast layout! Learn more

10-Day Weather Forecast

Advertisements
Track Severe Weather on mobile